createdAt,value
2023-01-19T00:00:31.865Z,25.10
2023-01-19T00:01:34.285Z,23.52
2023-01-19T00:02:37.251Z,24.65
2023-01-19T00:03:39.483Z,24.52
2023-01-19T00:04:41.940Z,24.88
2023-01-19T00:05:45.421Z,27.98
2023-01-19T00:06:47.714Z,21.95
2023-01-19T00:07:49.989Z,22.70
2023-01-19T00:08:52.237Z,24.98
2023-01-19T00:09:54.477Z,25.67
2023-01-19T00:10:56.647Z,24.00
2023-01-19T00:12:00.136Z,24.05
2023-01-19T00:13:02.799Z,21.33
2023-01-19T00:14:05.146Z,23.17
2023-01-19T00:15:08.116Z,27.40
2023-01-19T00:16:10.360Z,22.48
2023-01-19T00:17:12.626Z,24.30
2023-01-19T00:18:15.056Z,23.05
2023-01-19T00:19:17.298Z,23.17
2023-01-19T00:20:19.475Z,22.35
2023-01-19T00:21:22.249Z,24.35
2023-01-19T00:22:24.674Z,18.27
2023-01-19T00:23:26.894Z,23.52
2023-01-19T00:24:29.103Z,21.83
2023-01-19T00:25:31.386Z,21.10
2023-01-19T00:26:33.635Z,23.27
2023-01-19T00:27:36.023Z,22.38
2023-01-19T00:28:38.306Z,20.77
2023-01-19T00:29:41.278Z,19.95
2023-01-19T00:30:44.558Z,22.70
2023-01-19T00:31:46.806Z,21.23
2023-01-19T00:32:49.014Z,22.35
2023-01-19T00:33:52.839Z,20.25
2023-01-19T00:34:55.190Z,26.75
2023-01-19T00:35:57.464Z,23.63
2023-01-19T00:37:02.555Z,22.42
2023-01-19T00:38:04.841Z,22.65
2023-01-19T00:39:07.132Z,22.65
2023-01-19T00:40:10.216Z,21.30
2023-01-19T00:41:12.457Z,20.95
2023-01-19T00:42:33.525Z,19.65
2023-01-19T00:43:35.958Z,21.13
2023-01-19T00:44:38.200Z,16.20
2023-01-19T00:45:40.431Z,24.40
2023-01-19T00:46:42.699Z,20.10
2023-01-19T00:47:46.024Z,20.27
2023-01-19T00:48:48.174Z,18.15
2023-01-19T00:49:50.351Z,21.80
2023-01-19T00:50:52.727Z,19.05
2023-01-19T00:51:55.033Z,16.70
2023-01-19T00:53:01.032Z,22.40
2023-01-19T00:54:04.977Z,18.48
2023-01-19T00:55:08.984Z,17.73
2023-01-19T00:56:11.168Z,19.73
2023-01-19T00:57:14.685Z,17.40
2023-01-19T00:58:16.929Z,18.08
2023-01-19T00:59:19.092Z,19.25
2023-01-19T01:00:22.207Z,21.17
2023-01-19T01:01:44.718Z,19.73
2023-01-19T01:02:48.420Z,16.65
2023-01-19T01:03:50.647Z,19.20
2023-01-19T01:04:55.004Z,17.88
2023-01-19T01:05:57.531Z,18.58
2023-01-19T01:06:59.743Z,17.38
2023-01-19T01:08:01.977Z,16.73
2023-01-19T01:09:11.691Z,17.05
2023-01-19T01:10:25.604Z,19.13
2023-01-19T01:11:28.181Z,20.63
2023-01-19T01:12:30.498Z,17.60
2023-01-19T01:13:33.226Z,18.63
2023-01-19T01:14:35.800Z,18.30
2023-01-19T01:15:38.069Z,16.33
2023-01-19T01:16:41.109Z,17.85
2023-01-19T01:17:52.944Z,14.98
2023-01-19T01:18:55.244Z,21.35
2023-01-19T01:19:57.418Z,18.85
2023-01-19T01:21:07.164Z,14.23
2023-01-19T01:22:09.924Z,17.83
2023-01-19T01:23:12.887Z,17.10
2023-01-19T01:24:16.082Z,18.48
2023-01-19T01:25:22.548Z,18.35
2023-01-19T01:26:27.068Z,19.50
2023-01-19T01:27:30.014Z,15.82
2023-01-19T01:28:32.266Z,17.80
2023-01-19T01:29:36.379Z,14.32
2023-01-19T01:30:40.874Z,16.27
2023-01-19T01:31:43.160Z,14.18
2023-01-19T01:32:45.509Z,15.15
2023-01-19T01:33:47.780Z,15.40
2023-01-19T01:34:50.162Z,16.88
2023-01-19T01:35:52.631Z,15.70
2023-01-19T01:36:54.925Z,17.88
2023-01-19T01:38:00.925Z,21.77
2023-01-19T01:39:03.869Z,18.38
2023-01-19T01:40:07.061Z,17.67
2023-01-19T01:41:09.589Z,19.45
2023-01-19T01:42:18.265Z,17.65
2023-01-19T01:43:20.932Z,14.25
2023-01-19T01:44:50.107Z,14.15
2023-01-19T01:45:53.928Z,13.35
2023-01-19T01:46:56.841Z,16.23
2023-01-19T01:48:16.772Z,16.98
2023-01-19T01:49:19.058Z,13.82
2023-01-19T01:50:25.055Z,15.63
2023-01-19T01:51:32.971Z,15.45
2023-01-19T01:52:38.918Z,16.00
2023-01-19T01:53:43.230Z,13.77
2023-01-19T01:54:45.591Z,16.40
2023-01-19T01:55:49.559Z,17.20
2023-01-19T01:56:55.080Z,15.98
2023-01-19T01:58:02.714Z,15.07
2023-01-19T01:59:09.443Z,17.42
2023-01-19T02:02:51.409Z,16.52
2023-01-19T02:03:55.250Z,16.85
2023-01-19T02:05:04.138Z,19.45
2023-01-19T02:06:07.719Z,18.13
2023-01-19T02:07:33.700Z,16.55
2023-01-19T02:09:01.568Z,16.40
2023-01-19T02:10:22.884Z,16.75
2023-01-19T02:11:44.525Z,16.48
2023-01-19T02:13:05.843Z,17.27
2023-01-19T02:14:08.113Z,16.10
2023-01-19T02:15:20.448Z,16.88
2023-01-19T02:16:23.081Z,18.08
2023-01-19T02:17:25.396Z,17.27
2023-01-19T02:18:29.533Z,18.88
2023-01-19T02:19:38.862Z,16.08
2023-01-19T02:20:48.025Z,21.80
2023-01-19T02:22:11.826Z,21.10
2023-01-19T02:23:23.335Z,18.23
2023-01-19T02:24:26.027Z,18.52
2023-01-19T02:25:28.437Z,20.50
2023-01-19T02:26:45.791Z,16.58
2023-01-19T02:27:50.070Z,25.13
2023-01-19T02:28:59.871Z,24.48
2023-01-19T02:30:03.746Z,19.00
2023-01-19T02:31:06.613Z,20.38
2023-01-19T02:32:09.161Z,17.15
2023-01-19T02:33:11.404Z,17.38
2023-01-19T02:34:17.219Z,21.33
2023-01-19T02:35:20.838Z,21.13
2023-01-19T02:36:27.577Z,22.67
2023-01-19T02:37:36.618Z,19.33
2023-01-19T02:38:40.308Z,16.42
2023-01-19T02:40:17.205Z,16.48
2023-01-19T02:41:24.954Z,18.50
2023-01-19T02:42:56.356Z,17.88
2023-01-19T02:43:59.146Z,16.15
2023-01-19T02:45:06.591Z,16.88
2023-01-19T02:46:08.948Z,14.48
2023-01-19T02:47:12.342Z,16.90
2023-01-19T02:48:14.736Z,15.38
2023-01-19T02:49:16.891Z,18.48
2023-01-19T02:50:41.807Z,15.85
2023-01-19T02:51:44.460Z,16.98
2023-01-19T02:52:46.798Z,18.50
2023-01-19T02:53:57.658Z,16.42
2023-01-19T02:55:18.088Z,23.42
2023-01-19T02:56:29.071Z,16.90
2023-01-19T02:58:09.476Z,16.88
2023-01-19T02:59:30.529Z,17.13
2023-01-19T03:00:49.301Z,15.77
2023-01-19T03:02:31.200Z,14.65
2023-01-19T03:03:47.856Z,20.23
2023-01-19T03:05:04.333Z,14.77
2023-01-19T03:06:22.419Z,16.90
2023-01-19T03:07:50.625Z,19.75
2023-01-19T03:09:11.144Z,19.77
2023-01-19T03:10:26.154Z,16.42
2023-01-19T03:11:35.126Z,18.52
2023-01-19T03:12:46.836Z,16.40
2023-01-19T03:13:57.351Z,15.02
2023-01-19T03:15:05.042Z,15.77
2023-01-19T03:16:31.385Z,17.73
2023-01-19T03:17:35.111Z,13.65
2023-01-19T03:18:40.292Z,18.15
2023-01-19T03:19:46.645Z,15.70
2023-01-19T03:20:50.977Z,15.68
2023-01-19T03:21:58.941Z,16.55
2023-01-19T03:23:06.530Z,19.85
2023-01-19T03:24:12.002Z,17.13
2023-01-19T03:25:15.217Z,19.92
2023-01-19T03:26:24.276Z,15.90
2023-01-19T03:27:31.194Z,18.70
2023-01-19T03:28:36.180Z,14.23
2023-01-19T03:29:41.658Z,16.77
2023-01-19T03:30:47.181Z,19.08
2023-01-19T03:31:51.984Z,23.25
2023-01-19T03:33:00.083Z,19.30
2023-01-19T03:34:06.799Z,22.05
2023-01-19T03:35:13.458Z,17.05
2023-01-19T03:36:44.135Z,16.75
2023-01-19T03:37:50.548Z,17.77
2023-01-19T03:38:54.806Z,20.90
2023-01-19T03:39:57.141Z,19.60
2023-01-19T03:41:03.023Z,14.52
2023-01-19T03:42:09.382Z,18.65
2023-01-19T03:43:13.059Z,22.90
2023-01-19T03:44:16.183Z,19.45
2023-01-19T03:45:18.667Z,17.98
2023-01-19T03:46:22.652Z,18.65
2023-01-19T03:47:25.479Z,18.05
2023-01-19T03:48:27.687Z,14.02
2023-01-19T03:49:34.601Z,15.63
2023-01-19T03:50:36.943Z,16.02
2023-01-19T03:51:39.786Z,16.10
2023-01-19T03:52:42.078Z,15.30
2023-01-19T03:53:44.419Z,17.95
2023-01-19T03:54:46.739Z,16.10
2023-01-19T03:55:51.413Z,15.70
2023-01-19T03:56:54.015Z,17.40
2023-01-19T03:57:56.250Z,13.65
2023-01-19T03:58:58.439Z,15.88
2023-01-19T04:00:00.698Z,16.75
2023-01-19T04:01:04.164Z,16.33
2023-01-19T04:02:06.454Z,15.70
2023-01-19T04:03:15.441Z,16.15
2023-01-19T04:04:17.712Z,12.82
2023-01-19T04:05:19.870Z,16.80
2023-01-19T04:06:22.314Z,15.27
2023-01-19T04:07:24.900Z,15.30
2023-01-19T04:08:27.326Z,15.32
2023-01-19T04:09:29.867Z,13.93
2023-01-19T04:10:32.272Z,13.43
2023-01-19T04:11:34.594Z,15.80
2023-01-19T04:12:36.890Z,13.88
2023-01-19T04:13:39.130Z,14.88
2023-01-19T04:14:41.330Z,14.70
2023-01-19T04:15:43.605Z,16.42
2023-01-19T04:16:45.932Z,15.25
2023-01-19T04:17:48.240Z,17.13
2023-01-19T04:18:52.874Z,17.98
2023-01-19T04:19:55.063Z,18.13
2023-01-19T04:21:01.507Z,20.80
2023-01-19T04:22:04.827Z,16.33
2023-01-19T04:23:07.050Z,22.35
2023-01-19T04:24:10.126Z,16.00
2023-01-19T04:25:12.298Z,19.88
2023-01-19T04:26:14.625Z,15.32
2023-01-19T04:27:16.875Z,19.65
2023-01-19T04:28:19.073Z,17.33
2023-01-19T04:29:21.545Z,16.20
2023-01-19T04:30:24.417Z,16.05
2023-01-19T04:31:27.128Z,18.30
2023-01-19T04:32:30.213Z,15.18
2023-01-19T04:33:33.420Z,17.73
2023-01-19T04:34:35.680Z,17.70
2023-01-19T04:35:38.145Z,16.45
2023-01-19T04:36:40.376Z,18.17
2023-01-19T04:37:42.933Z,14.98
2023-01-19T04:38:46.613Z,18.35
2023-01-19T04:39:49.052Z,16.48
2023-01-19T04:40:52.826Z,15.32
2023-01-19T04:41:56.226Z,14.60
2023-01-19T04:42:58.774Z,17.52
2023-01-19T04:44:01.119Z,15.60
2023-01-19T04:45:03.525Z,16.73
2023-01-19T04:46:05.861Z,16.75
2023-01-19T04:47:08.118Z,15.32
2023-01-19T04:48:11.956Z,16.45
2023-01-19T04:49:15.175Z,14.73
2023-01-19T04:50:17.601Z,14.48
2023-01-19T04:51:19.858Z,17.77
2023-01-19T04:52:22.439Z,15.73
2023-01-19T04:53:24.743Z,16.92
2023-01-19T04:54:27.630Z,14.32
2023-01-19T04:55:29.872Z,15.80
2023-01-19T04:56:32.292Z,17.25
2023-01-19T04:57:34.516Z,14.07
2023-01-19T04:58:36.849Z,15.27
2023-01-19T04:59:39.052Z,17.02
2023-01-19T05:00:41.500Z,15.95
2023-01-19T05:01:43.902Z,16.58
2023-01-19T05:02:46.245Z,16.40
2023-01-19T05:03:48.736Z,15.20
2023-01-19T05:04:51.573Z,16.20
2023-01-19T05:05:53.900Z,14.88
2023-01-19T05:06:58.209Z,17.83
2023-01-19T05:08:00.873Z,15.57
2023-01-19T05:09:03.294Z,16.58
2023-01-19T05:10:06.795Z,17.35
2023-01-19T05:11:09.024Z,17.88
2023-01-19T05:12:11.702Z,14.73
2023-01-19T05:13:14.084Z,15.40
2023-01-19T05:14:16.263Z,18.40
2023-01-19T05:15:18.565Z,17.40
2023-01-19T05:16:20.972Z,16.88
2023-01-19T05:17:23.221Z,15.68
2023-01-19T05:18:25.393Z,19.17
2023-01-19T05:19:27.617Z,13.23
2023-01-19T05:20:30.083Z,20.48
2023-01-19T05:21:32.291Z,13.13
2023-01-19T05:22:39.308Z,14.50
2023-01-19T05:23:41.818Z,17.67
2023-01-19T05:24:44.245Z,16.20
2023-01-19T05:25:46.627Z,18.10
2023-01-19T05:26:49.116Z,14.30
2023-01-19T05:27:51.446Z,14.63
2023-01-19T05:28:53.847Z,16.05
2023-01-19T05:29:56.116Z,16.55
2023-01-19T05:30:58.671Z,14.60
2023-01-19T05:32:01.236Z,13.25
2023-01-19T05:33:03.834Z,14.52
2023-01-19T05:34:06.382Z,15.80
2023-01-19T05:35:09.043Z,13.13
2023-01-19T05:36:11.268Z,15.40
2023-01-19T05:37:14.074Z,16.40
2023-01-19T05:38:20.819Z,18.80
2023-01-19T05:39:23.115Z,17.48
2023-01-19T05:40:25.637Z,17.65
2023-01-19T05:41:27.859Z,18.10
2023-01-19T05:42:32.082Z,16.40
2023-01-19T05:43:35.054Z,18.52
2023-01-19T05:44:37.245Z,16.65
2023-01-19T05:45:39.582Z,14.23
2023-01-19T05:46:41.786Z,17.45
2023-01-19T05:47:44.138Z,16.67
2023-01-19T05:48:46.339Z,15.88
2023-01-19T05:49:48.820Z,12.82
2023-01-19T05:50:51.394Z,16.95
2023-01-19T05:51:53.930Z,14.30
2023-01-19T05:52:56.253Z,19.08
2023-01-19T05:53:58.491Z,18.50
2023-01-19T05:55:00.699Z,17.85
2023-01-19T05:56:05.740Z,19.58
2023-01-19T05:57:08.168Z,21.83
2023-01-19T05:58:10.443Z,18.33
2023-01-19T05:59:12.986Z,22.15
2023-01-19T06:00:15.816Z,24.13
2023-01-19T06:01:18.147Z,21.48
2023-01-19T06:02:20.558Z,24.30
2023-01-19T06:03:22.913Z,26.40
2023-01-19T06:04:25.616Z,30.25
2023-01-19T06:05:27.982Z,26.45
2023-01-19T06:06:30.233Z,27.23
2023-01-19T06:07:32.609Z,20.95
2023-01-19T06:08:34.862Z,23.98
2023-01-19T06:09:37.114Z,24.67
2023-01-19T06:10:39.388Z,21.95
2023-01-19T06:11:42.043Z,19.42
2023-01-19T06:12:44.560Z,21.98
2023-01-19T06:13:47.690Z,18.40
2023-01-19T06:14:50.375Z,18.05
2023-01-19T06:16:02.311Z,19.88
2023-01-19T06:17:06.010Z,19.23
2023-01-19T06:18:08.458Z,19.80
2023-01-19T06:19:10.709Z,19.33
2023-01-19T06:20:16.256Z,16.65
2023-01-19T06:21:18.480Z,21.63
2023-01-19T06:22:20.715Z,21.13
2023-01-19T06:23:22.898Z,21.02
2023-01-19T06:24:25.273Z,19.52
2023-01-19T06:25:28.170Z,24.55
2023-01-19T06:26:30.536Z,21.00
2023-01-19T06:27:32.728Z,23.42
2023-01-19T06:28:35.004Z,24.60
2023-01-19T06:29:37.254Z,23.20
2023-01-19T06:30:40.401Z,22.58
2023-01-19T06:31:43.107Z,23.33
2023-01-19T06:32:45.451Z,21.98
2023-01-19T06:33:47.737Z,18.70
2023-01-19T06:34:49.982Z,15.95
2023-01-19T06:35:52.631Z,17.27
2023-01-19T06:36:56.237Z,18.30
2023-01-19T06:37:58.614Z,20.25
2023-01-19T06:39:03.311Z,19.05
2023-01-19T06:40:06.502Z,16.83
2023-01-19T06:41:08.713Z,16.75
2023-01-19T06:42:11.347Z,15.88
2023-01-19T06:43:13.594Z,17.23
2023-01-19T06:44:15.874Z,16.70
2023-01-19T06:45:18.280Z,15.23
2023-01-19T06:46:20.468Z,15.13
2023-01-19T06:47:22.848Z,15.75
2023-01-19T06:48:25.142Z,15.52
2023-01-19T06:49:27.372Z,17.45
2023-01-19T06:50:29.626Z,14.93
2023-01-19T06:51:31.874Z,15.73
2023-01-19T06:52:34.702Z,14.93
2023-01-19T06:53:36.946Z,19.08
2023-01-19T06:54:39.184Z,16.05
2023-01-19T06:55:41.466Z,17.00
2023-01-19T06:56:43.725Z,18.63
2023-01-19T06:57:46.221Z,17.80
2023-01-19T06:58:48.525Z,12.43
2023-01-19T06:59:50.797Z,16.63
2023-01-19T07:00:53.224Z,15.35
2023-01-19T07:01:56.805Z,16.27
2023-01-19T07:02:59.602Z,15.95
2023-01-19T07:04:01.952Z,15.82
2023-01-19T07:05:06.684Z,19.98
2023-01-19T07:06:08.950Z,18.98
2023-01-19T07:07:11.215Z,19.45
2023-01-19T07:08:15.391Z,22.73
2023-01-19T07:09:17.938Z,20.92
2023-01-19T07:10:20.748Z,21.27
2023-01-19T07:11:30.426Z,22.13
2023-01-19T07:12:35.495Z,28.10
2023-01-19T07:13:39.209Z,27.42
2023-01-19T07:14:41.681Z,26.27
2023-01-19T07:15:44.022Z,23.25
2023-01-19T07:16:46.293Z,26.13
2023-01-19T07:17:48.828Z,23.30
2023-01-19T07:18:51.090Z,26.52
2023-01-19T07:19:53.432Z,21.70
2023-01-19T07:20:57.636Z,24.98
2023-01-19T07:22:00.574Z,26.15
2023-01-19T07:23:03.690Z,22.08
2023-01-19T07:24:06.424Z,21.58
2023-01-19T07:25:09.295Z,19.58
2023-01-19T07:26:11.544Z,19.70
2023-01-19T07:27:13.912Z,17.85
2023-01-19T07:28:16.739Z,18.50
2023-01-19T07:29:19.059Z,18.10
2023-01-19T07:30:21.290Z,15.95
2023-01-19T07:31:23.764Z,20.52
2023-01-19T07:32:26.032Z,15.85
2023-01-19T07:33:29.007Z,14.43
2023-01-19T07:34:31.285Z,17.63
2023-01-19T07:35:33.529Z,18.42
2023-01-19T07:36:36.064Z,13.40
2023-01-19T07:37:38.259Z,18.20
2023-01-19T07:38:40.643Z,15.95
2023-01-19T07:39:43.042Z,14.98
2023-01-19T07:40:48.819Z,16.63
2023-01-19T07:41:51.009Z,15.52
2023-01-19T07:42:53.196Z,13.77
2023-01-19T07:43:55.459Z,18.65
2023-01-19T07:44:58.217Z,16.92
2023-01-19T07:46:02.459Z,25.38
2023-01-19T07:47:07.415Z,17.65
2023-01-19T07:48:09.747Z,16.23
2023-01-19T07:49:12.546Z,15.85
2023-01-19T07:50:16.520Z,16.05
2023-01-19T07:51:18.943Z,19.63
2023-01-19T07:52:22.898Z,17.30
2023-01-19T07:53:25.078Z,20.50
2023-01-19T07:54:27.408Z,14.82
2023-01-19T07:55:29.635Z,18.48
2023-01-19T07:56:33.910Z,18.65
2023-01-19T07:57:37.042Z,20.17
2023-01-19T07:58:39.436Z,16.25
2023-01-19T07:59:41.674Z,18.83
2023-01-19T08:00:44.075Z,15.40
2023-01-19T08:01:46.377Z,16.65
2023-01-19T08:02:51.901Z,13.57
2023-01-19T08:03:54.259Z,12.05
2023-01-19T08:04:56.712Z,13.40
2023-01-19T08:05:59.811Z,18.65
2023-01-19T08:07:02.238Z,16.17
2023-01-19T08:08:05.478Z,17.60
2023-01-19T08:09:08.375Z,21.13
2023-01-19T08:10:12.232Z,16.73
2023-01-19T08:11:15.182Z,12.57
2023-01-19T08:12:18.174Z,15.57
2023-01-19T08:13:20.430Z,18.85
2023-01-19T08:14:22.866Z,19.92
2023-01-19T08:15:25.549Z,13.15
2023-01-19T08:16:27.987Z,16.02
2023-01-19T08:17:30.487Z,16.42
2023-01-19T08:18:32.761Z,15.63
2023-01-19T08:19:34.934Z,13.55
2023-01-19T08:20:37.858Z,14.75
2023-01-19T08:21:40.157Z,13.35
2023-01-19T08:22:42.402Z,12.98
2023-01-19T08:23:44.736Z,14.60
2023-01-19T08:24:48.965Z,12.15
2023-01-19T08:25:52.569Z,11.23
2023-01-19T08:27:02.190Z,11.75
2023-01-19T08:28:06.453Z,15.43
2023-01-19T08:29:08.945Z,18.85
2023-01-19T08:30:11.452Z,13.10
2023-01-19T08:31:20.870Z,15.13
2023-01-19T08:32:24.739Z,14.07
2023-01-19T08:33:26.922Z,16.27
2023-01-19T08:34:30.970Z,13.80
2023-01-19T08:35:36.062Z,18.08
2023-01-19T08:36:38.228Z,14.95
2023-01-19T08:37:40.547Z,14.90
2023-01-19T08:38:45.070Z,15.48
2023-01-19T08:39:47.318Z,22.52
2023-01-19T08:40:49.547Z,14.00
2023-01-19T08:41:52.385Z,16.75
2023-01-19T08:43:01.066Z,18.95
2023-01-19T08:44:03.662Z,21.40
2023-01-19T08:45:06.724Z,16.35
2023-01-19T08:46:09.240Z,18.73
2023-01-19T08:47:11.640Z,21.80
2023-01-19T08:48:15.591Z,20.95
2023-01-19T08:49:17.905Z,19.45
2023-01-19T08:50:20.167Z,18.63
2023-01-19T08:51:22.509Z,19.30
2023-01-19T08:52:26.586Z,14.00
2023-01-19T08:53:28.830Z,16.38
2023-01-19T08:54:31.046Z,15.57
2023-01-19T08:55:35.462Z,14.40
2023-01-19T08:56:37.748Z,17.05
2023-01-19T08:57:40.994Z,16.25
2023-01-19T08:58:44.583Z,18.88
2023-01-19T08:59:47.452Z,17.08
2023-01-19T09:00:52.353Z,19.10
2023-01-19T09:01:55.013Z,20.52
2023-01-19T09:02:57.759Z,19.23
2023-01-19T09:03:59.999Z,15.80
2023-01-19T09:05:04.441Z,14.65
2023-01-19T09:06:11.514Z,13.93
2023-01-19T09:07:13.748Z,16.70
2023-01-19T09:08:15.953Z,17.27
2023-01-19T09:09:18.220Z,13.43
2023-01-19T09:10:20.613Z,23.63
2023-01-19T09:11:22.928Z,17.35
2023-01-19T09:12:25.133Z,15.15
2023-01-19T09:13:27.596Z,20.13
2023-01-19T09:14:29.907Z,13.73
2023-01-19T09:15:35.708Z,22.15
2023-01-19T09:16:38.236Z,12.35
2023-01-19T09:17:44.023Z,17.48
2023-01-19T09:18:46.304Z,19.58
2023-01-19T09:19:48.543Z,18.05
2023-01-19T09:20:51.087Z,16.90
2023-01-19T09:21:54.791Z,15.77
2023-01-19T09:22:59.735Z,11.68
2023-01-19T09:24:02.084Z,13.55
2023-01-19T09:25:04.598Z,14.25
2023-01-19T09:26:06.949Z,15.25
2023-01-19T09:27:09.273Z,17.67
2023-01-19T09:28:14.741Z,22.08
2023-01-19T09:29:17.021Z,20.83
2023-01-19T09:30:19.869Z,18.60
2023-01-19T09:31:22.193Z,17.33
2023-01-19T09:32:24.626Z,21.73
2023-01-19T09:33:26.850Z,20.60
2023-01-19T09:34:29.092Z,15.52
2023-01-19T09:35:31.509Z,21.48
2023-01-19T09:36:33.670Z,16.05
2023-01-19T09:37:35.984Z,15.13
2023-01-19T09:38:38.386Z,18.80
2023-01-19T09:39:40.735Z,17.48
2023-01-19T09:40:52.236Z,16.65
2023-01-19T09:42:13.529Z,17.77
2023-01-19T09:43:33.760Z,21.48
2023-01-19T09:44:36.166Z,20.75
2023-01-19T09:46:25.896Z,16.65
2023-01-19T09:47:30.560Z,21.75
2023-01-19T09:48:52.135Z,20.23
2023-01-19T09:50:01.615Z,20.08
2023-01-19T09:51:07.597Z,20.42
2023-01-19T09:52:13.422Z,18.33
2023-01-19T09:53:39.025Z,21.35
2023-01-19T09:54:52.958Z,16.55
2023-01-19T09:55:55.394Z,15.63
2023-01-19T09:56:57.696Z,14.52
2023-01-19T09:58:00.288Z,15.88
2023-01-19T09:59:25.113Z,18.58
2023-01-19T10:00:30.186Z,19.60
2023-01-19T10:01:47.135Z,18.00
2023-01-19T10:02:55.823Z,14.95
2023-01-19T10:04:16.213Z,15.93
2023-01-19T10:05:31.607Z,12.32
2023-01-19T10:06:34.031Z,9.00
2023-01-19T10:08:08.859Z,9.82
2023-01-19T10:09:32.108Z,12.57
2023-01-19T10:10:36.516Z,13.77
2023-01-19T10:12:09.566Z,12.25
2023-01-19T10:13:34.341Z,13.55
2023-01-19T10:15:04.065Z,14.95
2023-01-19T10:16:15.190Z,12.65
2023-01-19T10:17:39.227Z,12.85
2023-01-19T10:18:51.590Z,10.30
2023-01-19T10:19:58.452Z,9.50
2023-01-19T10:21:14.462Z,10.55
2023-01-19T10:22:28.458Z,11.05
2023-01-19T10:23:42.520Z,11.73
2023-01-19T10:24:46.664Z,10.65
2023-01-19T10:25:49.459Z,15.80
2023-01-19T10:26:54.768Z,15.90
2023-01-19T10:28:00.693Z,12.07
2023-01-19T10:29:21.873Z,12.05
2023-01-19T10:30:29.138Z,13.18
2023-01-19T10:31:34.037Z,10.98
2023-01-19T10:32:38.877Z,10.02
2023-01-19T10:33:41.258Z,12.63
2023-01-19T10:34:43.869Z,12.10
2023-01-19T10:35:48.685Z,12.90
2023-01-19T10:36:58.927Z,10.32
2023-01-19T10:38:02.657Z,9.90
2023-01-19T10:39:06.511Z,10.57
2023-01-19T10:40:11.734Z,9.20
2023-01-19T10:41:44.949Z,12.88
2023-01-19T10:42:47.184Z,9.50
2023-01-19T10:43:58.203Z,9.25
2023-01-19T10:45:00.626Z,9.70
2023-01-19T10:46:27.351Z,12.35
2023-01-19T10:47:36.765Z,10.38
2023-01-19T10:48:41.908Z,11.48
2023-01-19T10:49:44.647Z,8.23
2023-01-19T10:50:46.872Z,11.30
2023-01-19T10:51:49.461Z,14.20
2023-01-19T10:52:54.108Z,10.93
2023-01-19T10:54:00.021Z,13.82
2023-01-19T10:55:04.321Z,10.88
2023-01-19T10:56:32.332Z,9.43
2023-01-19T10:57:37.849Z,9.70
2023-01-19T10:58:43.639Z,10.30
2023-01-19T10:59:53.590Z,11.20
2023-01-19T11:00:55.921Z,9.95
2023-01-19T11:02:16.297Z,10.32
2023-01-19T11:03:23.467Z,13.65
2023-01-19T11:04:29.600Z,10.38
2023-01-19T11:05:35.429Z,13.05
2023-01-19T11:06:37.626Z,9.60
2023-01-19T11:07:39.802Z,13.70
2023-01-19T11:08:46.516Z,11.50
2023-01-19T11:09:50.252Z,14.38
2023-01-19T11:10:59.038Z,16.15
2023-01-19T11:12:01.314Z,11.40
2023-01-19T11:13:16.020Z,13.35
2023-01-19T11:14:21.810Z,12.60
2023-01-19T11:15:30.443Z,13.55
2023-01-19T11:16:35.075Z,14.82
2023-01-19T11:17:48.093Z,14.07
2023-01-19T11:18:54.289Z,11.80
2023-01-19T11:20:00.669Z,12.55
2023-01-19T11:21:16.358Z,14.10
2023-01-19T11:22:22.799Z,13.63
2023-01-19T11:23:43.225Z,15.38
2023-01-19T11:24:45.638Z,11.20
2023-01-19T11:25:50.284Z,15.27
2023-01-19T11:27:02.956Z,13.73
2023-01-19T11:28:05.535Z,13.20
2023-01-19T11:29:21.174Z,12.63
2023-01-19T11:30:26.076Z,12.98
2023-01-19T11:31:35.664Z,10.57
2023-01-19T11:32:37.973Z,11.25
2023-01-19T11:33:49.760Z,17.05
2023-01-19T11:34:54.063Z,14.95
2023-01-19T11:36:06.493Z,12.80
2023-01-19T11:37:32.403Z,12.55
2023-01-19T11:38:43.335Z,13.43
2023-01-19T11:39:51.163Z,14.07
2023-01-19T11:40:58.487Z,13.98
2023-01-19T11:42:06.232Z,13.35
2023-01-19T11:43:13.457Z,12.50
2023-01-19T11:44:26.973Z,11.13
2023-01-19T11:45:29.475Z,16.42
2023-01-19T11:46:34.605Z,16.80
2023-01-19T11:47:45.643Z,10.77
2023-01-19T11:49:01.938Z,15.70
2023-01-19T11:50:23.060Z,12.02
2023-01-19T11:51:30.804Z,13.98
2023-01-19T11:52:37.601Z,14.52
2023-01-19T11:53:49.266Z,18.17
2023-01-19T11:55:14.904Z,21.10
2023-01-19T11:56:20.536Z,12.95
2023-01-19T11:57:22.853Z,16.92
2023-01-19T11:58:26.670Z,15.90
2023-01-19T11:59:29.030Z,14.13
2023-01-19T12:00:43.583Z,14.70
2023-01-19T12:01:51.367Z,15.35
2023-01-19T12:02:59.306Z,13.43
2023-01-19T12:04:10.720Z,11.82
2023-01-19T12:05:18.164Z,15.32
2023-01-19T12:06:25.578Z,15.60
2023-01-19T12:07:36.293Z,12.18
2023-01-19T12:08:48.348Z,14.27
2023-01-19T12:09:56.440Z,11.90
2023-01-19T12:11:04.071Z,13.23
2023-01-19T12:12:28.309Z,13.95
2023-01-19T12:13:33.209Z,11.10
2023-01-19T12:14:46.005Z,13.48
2023-01-19T12:15:54.606Z,14.82
2023-01-19T12:17:02.419Z,12.82
2023-01-19T12:18:07.669Z,12.27
2023-01-19T12:19:18.028Z,18.40
2023-01-19T12:20:38.534Z,13.07
2023-01-19T12:21:44.397Z,11.32
2023-01-19T12:22:55.588Z,12.10
2023-01-19T12:24:18.019Z,12.63
2023-01-19T12:25:31.509Z,11.07
2023-01-19T12:26:48.835Z,10.85
2023-01-19T12:27:53.996Z,11.45
2023-01-19T12:29:22.235Z,11.90
2023-01-19T12:30:29.566Z,12.00
2023-01-19T12:31:32.055Z,10.82
2023-01-19T12:32:36.747Z,12.93
2023-01-19T12:33:40.133Z,8.88
2023-01-19T12:34:46.767Z,8.35
2023-01-19T12:35:57.653Z,12.25
2023-01-19T12:37:06.127Z,12.13
2023-01-19T12:38:43.545Z,10.23
2023-01-19T12:39:49.010Z,16.08
2023-01-19T12:41:15.738Z,12.30
2023-01-19T12:42:21.150Z,10.75
2023-01-19T12:43:24.532Z,10.43
2023-01-19T12:44:30.692Z,12.85
2023-01-19T12:45:37.919Z,12.82
2023-01-19T12:46:46.904Z,12.13
2023-01-19T12:47:56.283Z,11.88
2023-01-19T12:49:21.417Z,12.75
2023-01-19T12:50:25.788Z,11.60
2023-01-19T12:51:28.144Z,12.70
2023-01-19T12:52:35.926Z,11.15
2023-01-19T12:53:38.251Z,13.02
2023-01-19T12:54:49.797Z,13.45
2023-01-19T12:56:00.965Z,12.30
2023-01-19T12:57:09.158Z,12.18
2023-01-19T12:58:23.722Z,12.52
2023-01-19T12:59:27.311Z,12.88
2023-01-19T13:00:33.545Z,13.00
2023-01-19T13:01:35.874Z,13.88
2023-01-19T13:02:46.914Z,12.77
2023-01-19T13:04:31.018Z,17.15
2023-01-19T13:05:39.312Z,13.35
2023-01-19T13:06:47.694Z,13.95
2023-01-19T13:08:01.777Z,10.82
2023-01-19T13:09:24.065Z,14.85
2023-01-19T13:11:00.410Z,14.68
2023-01-19T13:12:14.640Z,14.07
2023-01-19T13:13:19.665Z,11.68
2023-01-19T13:14:36.406Z,12.25
2023-01-19T13:15:39.293Z,14.82
2023-01-19T13:16:41.478Z,11.60
2023-01-19T13:17:54.365Z,16.88
2023-01-19T13:19:06.131Z,11.40
2023-01-19T13:20:17.205Z,11.95
2023-01-19T13:21:33.288Z,12.02
2023-01-19T13:22:50.367Z,11.10
2023-01-19T13:23:55.744Z,13.48
2023-01-19T13:25:12.242Z,12.05
2023-01-19T13:26:16.905Z,13.30
2023-01-19T13:27:19.268Z,11.77
2023-01-19T13:28:30.600Z,12.88
2023-01-19T13:29:35.810Z,10.35
2023-01-19T13:30:51.114Z,13.80
2023-01-19T13:32:02.114Z,12.30
2023-01-19T13:33:15.244Z,11.60
2023-01-19T13:34:21.208Z,11.43
2023-01-19T13:35:24.308Z,11.23
2023-01-19T13:36:36.552Z,12.35
2023-01-19T13:37:41.598Z,11.93
2023-01-19T13:38:44.074Z,13.45
2023-01-19T13:39:50.112Z,13.20
2023-01-19T13:40:54.652Z,15.05
2023-01-19T13:42:01.800Z,12.00
2023-01-19T13:43:14.680Z,13.38
2023-01-19T13:44:29.798Z,11.60
2023-01-19T13:45:38.056Z,14.18
2023-01-19T13:46:41.053Z,14.48
2023-01-19T13:47:47.462Z,11.30
2023-01-19T13:48:55.463Z,15.45
2023-01-19T13:49:58.779Z,10.57
2023-01-19T13:51:06.787Z,16.35
2023-01-19T13:52:17.092Z,11.45
2023-01-19T13:53:20.966Z,11.73
2023-01-19T13:54:25.928Z,12.18
2023-01-19T13:55:30.202Z,12.02
2023-01-19T13:56:32.436Z,13.50
2023-01-19T13:57:41.437Z,11.27
2023-01-19T13:58:44.299Z,11.82
2023-01-19T14:00:01.492Z,10.70
2023-01-19T14:01:03.764Z,13.00
2023-01-19T14:02:13.576Z,13.18
2023-01-19T14:03:18.492Z,12.60
2023-01-19T14:04:32.850Z,11.82
2023-01-19T14:05:40.294Z,12.52
2023-01-19T14:06:48.890Z,13.43
2023-01-19T14:08:08.296Z,12.35
2023-01-19T14:09:18.575Z,13.30
2023-01-19T14:10:20.965Z,11.60
2023-01-19T14:11:23.221Z,11.07
2023-01-19T14:12:25.718Z,15.75
2023-01-19T14:13:42.730Z,12.65
2023-01-19T14:14:47.307Z,11.82
2023-01-19T14:15:51.759Z,13.70